Saltar para o conteúdo principal

Loulé / Cavalos De Caldeirão

ID 1210553 · 37.3042, -7.9534 mapa

Última leitura · 2026-05-09 18:00 (Europe/Lisbon)

Temperatura
12.9 °C
Humidade
88 %
Pressão
1,009.5 hPa
Precipitação
0.0 mm
Radiação
Velocidade do vento
42.8 km/h
Direcção do vento
S · Sul

Histórico de 24 horas

Hora (Europe/Lisbon) Temperatura Humidade Pressão Chuva Vento Direcção
2026-05-09 18:00 12.9 °C 88 % 1,009.5 0.0 mm 42.8 km/h S
2026-05-09 17:00 14.1 °C 77 % 1,008.6 0.0 mm 48.2 km/h SW
2026-05-09 16:00 14.3 °C 82 % 1,008.3 0.0 mm 49.3 km/h SW
2026-05-09 15:00 13.4 °C 92 % 1,007.8 0.0 mm 53.6 km/h S
2026-05-09 14:00 13.2 °C 86 % 1,008.0 0.0 mm 45.4 km/h S
2026-05-09 13:00 13.2 °C 82 % 1,007.8 0.0 mm 40.3 km/h SW
2026-05-09 12:00 13.3 °C 82 % 1,006.9 0.0 mm 40.0 km/h SW
2026-05-09 11:00 12.2 °C 93 % 1,006.0 0.0 mm 52.6 km/h SW
2026-05-09 10:00 11.7 °C 100 % 1,004.8 0.0 mm 50.8 km/h SW
2026-05-09 09:00 11.7 °C 100 % 1,003.8 0.2 mm 63.4 km/h S
2026-05-09 08:00 10.8 °C 100 % 1,004.7 6.0 mm 44.6 km/h S
2026-05-09 07:00 11.1 °C 99 % 1,004.4 0.5 mm 42.5 km/h S
2026-05-09 06:00 11.6 °C 100 % 1,004.3 0.1 mm 51.5 km/h S
2026-05-09 05:00 11.6 °C 100 % 1,005.0 0.8 mm 45.7 km/h S
2026-05-09 04:00 11.3 °C 100 % 1,005.7 0.0 mm 45.7 km/h S
2026-05-09 03:00 9.7 °C 100 % 1,007.3 10.1 mm 41.4 km/h S
2026-05-09 02:00 10.9 °C 100 % 1,007.9 7.2 mm 20.5 km/h SW
2026-05-09 01:00 10.1 °C 98 % 1,008.6 0.0 mm 32.4 km/h S
2026-05-09 00:00 9.8 °C 100 % 1,009.3 0.1 mm 33.1 km/h S
2026-05-08 23:00 9.8 °C 100 % 1,009.9 2.8 mm 26.3 km/h S
2026-05-08 22:00 11.0 °C 96 % 1,009.2 1.2 mm 37.1 km/h S
2026-05-08 21:00 11.7 °C 91 % 1,008.8 0.0 mm 35.6 km/h S
2026-05-08 20:00 12.4 °C 84 % 1,008.6 0.0 mm 31.3 km/h S
2026-05-08 19:00 13.9 °C 74 % 1,008.4 0.0 mm 33.8 km/h S